Terminal Aerodrome Forecast
Issued by NWS Wilmington, NC

Home | Current Version | Previous Version | Text Only | Print | Product List | Glossary On
Versions: 1 2 3 4 5 6 7 8 9 10 11 12 13 14 15 16 17
000
FTUS42 KILM 110700 AAB
TAFLBT
TAF AMD
KLBT 110722Z 1107/1206 25004KT P6SM VCSH FEW009
     FM111000 VRB03KT 4SM BR SCT010 BKN100
     FM111300 VRB05KT P6SM SCT050 BKN100
     FM111800 10005KT P6SM VCTS SCT050CB
     FM120100 VRB04KT P6SM SCT050 SCT250=

USA.gov is the U.S. government's official web portal to all federal, state and local government web resources and services.